sensor_id;sensor_type;location;lat;lon;timestamp;pressure;altitude;pressure_sealevel;temperature;humidity
33454;BME280;39400;49.744;7.012;2023-09-19T00:01:40;95484.88;;;22.25;100.00
33454;BME280;39400;49.744;7.012;2023-09-19T00:04:07;95484.94;;;22.01;100.00
33454;BME280;39400;49.744;7.012;2023-09-19T00:06:32;95476.78;;;22.27;100.00
33454;BME280;39400;49.744;7.012;2023-09-19T00:08:58;95493.00;;;21.84;100.00
33454;BME280;39400;49.744;7.012;2023-09-19T00:11:23;95486.53;;;22.32;100.00
33454;BME280;39400;49.744;7.012;2023-09-19T00:13:48;95492.69;;;21.44;100.00
33454;BME280;39400;49.744;7.012;2023-09-19T00:16:13;95494.13;;;21.39;100.00
33454;BME280;39400;49.744;7.012;2023-09-19T00:18:38;95500.88;;;20.99;100.00
33454;BME280;39400;49.744;7.012;2023-09-19T00:21:04;95498.28;;;20.86;100.00
33454;BME280;39400;49.744;7.012;2023-09-19T00:23:29;95499.97;;;20.51;100.00
33454;BME280;39400;49.744;7.012;2023-09-19T00:25:54;95502.38;;;21.09;100.00
33454;BME280;39400;49.744;7.012;2023-09-19T00:28:23;95501.50;;;20.94;100.00
33454;BME280;39400;49.744;7.012;2023-09-19T00:30:48;95508.50;;;20.89;100.00
33454;BME280;39400;49.744;7.012;2023-09-19T00:33:13;95525.72;;;21.30;100.00
33454;BME280;39400;49.744;7.012;2023-09-19T00:35:39;95523.34;;;21.62;100.00
33454;BME280;39400;49.744;7.012;2023-09-19T00:38:04;95533.16;;;21.81;100.00
33454;BME280;39400;49.744;7.012;2023-09-19T00:40:29;95533.75;;;22.24;100.00
33454;BME280;39400;49.744;7.012;2023-09-19T00:42:56;95532.13;;;22.33;100.00
33454;BME280;39400;49.744;7.012;2023-09-19T00:45:22;95532.22;;;22.53;100.00
33454;BME280;39400;49.744;7.012;2023-09-19T00:47:48;95535.69;;;22.48;99.78
33454;BME280;39400;49.744;7.012;2023-09-19T00:50:13;95524.69;;;22.29;100.00
33454;BME280;39400;49.744;7.012;2023-09-19T00:52:40;95539.47;;;22.06;100.00
33454;BME280;39400;49.744;7.012;2023-09-19T00:55:07;95534.25;;;21.99;100.00
33454;BME280;39400;49.744;7.012;2023-09-19T00:57:33;95535.06;;;22.14;100.00
33454;BME280;39400;49.744;7.012;2023-09-19T00:59:59;95544.56;;;22.91;96.43
33454;BME280;39400;49.744;7.012;2023-09-19T01:02:25;95548.34;;;22.88;93.42
33454;BME280;39400;49.744;7.012;2023-09-19T01:04:51;95544.41;;;22.79;91.69
33454;BME280;39400;49.744;7.012;2023-09-19T01:07:17;95554.06;;;23.08;91.65
33454;BME280;39400;49.744;7.012;2023-09-19T01:09:42;95547.47;;;22.96;91.29
33454;BME280;39400;49.744;7.012;2023-09-19T01:12:07;95553.03;;;23.26;88.31
33454;BME280;39400;49.744;7.012;2023-09-19T01:17:32;95559.88;;;22.45;94.88
33454;BME280;39400;49.744;7.012;2023-09-19T01:23:00;95551.25;;;21.47;100.00
33454;BME280;39400;49.744;7.012;2023-09-19T01:25:50;95555.00;;;21.68;99.46
33454;BME280;39400;49.744;7.012;2023-09-19T01:28:34;95562.25;;;21.99;94.19
33454;BME280;39400;49.744;7.012;2023-09-19T01:31:04;95565.28;;;22.49;92.72
33454;BME280;39400;49.744;7.012;2023-09-19T01:33:53;95566.63;;;22.68;91.31
33454;BME280;39400;49.744;7.012;2023-09-19T01:36:16;95571.91;;;21.98;94.86
33454;BME280;39400;49.744;7.012;2023-09-19T01:38:41;95574.34;;;22.44;92.59
33454;BME280;39400;49.744;7.012;2023-09-19T01:41:11;95570.50;;;22.41;92.77
33454;BME280;39400;49.744;7.012;2023-09-19T01:43:39;95579.34;;;22.01;95.88
33454;BME280;39400;49.744;7.012;2023-09-19T01:46:09;95581.09;;;21.74;96.35
33454;BME280;39400;49.744;7.012;2023-09-19T01:51:17;95586.28;;;22.29;93.88
33454;BME280;39400;49.744;7.012;2023-09-19T01:53:56;95589.00;;;22.24;91.87
33454;BME280;39400;49.744;7.012;2023-09-19T01:56:26;95589.41;;;22.31;92.22
33454;BME280;39400;49.744;7.012;2023-09-19T01:58:53;95589.97;;;22.21;92.19
33454;BME280;39400;49.744;7.012;2023-09-19T02:01:22;95581.56;;;21.97;93.92
33454;BME280;39400;49.744;7.012;2023-09-19T02:03:47;95576.44;;;21.71;94.92
33454;BME280;39400;49.744;7.012;2023-09-19T02:06:14;95580.38;;;21.89;93.91
33454;BME280;39400;49.744;7.012;2023-09-19T02:08:39;95586.91;;;21.85;93.60
33454;BME280;39400;49.744;7.012;2023-09-19T02:11:04;95583.91;;;22.13;93.29
33454;BME280;39400;49.744;7.012;2023-09-19T02:13:30;95574.19;;;21.84;93.03
33454;BME280;39400;49.744;7.012;2023-09-19T02:15:55;95577.31;;;22.01;92.66
33454;BME280;39400;49.744;7.012;2023-09-19T02:18:20;95580.19;;;21.92;92.55
33454;BME280;39400;49.744;7.012;2023-09-19T02:20:45;95578.59;;;21.76;94.00
33454;BME280;39400;49.744;7.012;2023-09-19T02:23:11;95585.56;;;21.57;93.13
33454;BME280;39400;49.744;7.012;2023-09-19T02:25:36;95585.50;;;21.66;95.09
33454;BME280;39400;49.744;7.012;2023-09-19T02:28:02;95596.47;;;21.55;92.56
33454;BME280;39400;49.744;7.012;2023-09-19T02:30:27;95602.06;;;21.55;96.83
33454;BME280;39400;49.744;7.012;2023-09-19T02:32:55;95590.78;;;21.64;94.68
33454;BME280;39400;49.744;7.012;2023-09-19T02:35:20;95596.09;;;21.62;92.31
33454;BME280;39400;49.744;7.012;2023-09-19T02:37:45;95593.28;;;21.38;96.39
33454;BME280;39400;49.744;7.012;2023-09-19T02:40:11;95599.19;;;21.64;96.57
33454;BME280;39400;49.744;7.012;2023-09-19T02:42:37;95598.09;;;21.85;94.29
33454;BME280;39400;49.744;7.012;2023-09-19T02:45:02;95589.63;;;20.62;99.37
33454;BME280;39400;49.744;7.012;2023-09-19T02:47:28;95592.38;;;20.71;100.00
33454;BME280;39400;49.744;7.012;2023-09-19T02:49:53;95590.56;;;21.10;99.35
33454;BME280;39400;49.744;7.012;2023-09-19T02:52:18;95596.72;;;20.81;100.00
33454;BME280;39400;49.744;7.012;2023-09-19T02:54:44;95598.03;;;21.04;100.00
33454;BME280;39400;49.744;7.012;2023-09-19T02:57:09;95595.84;;;20.66;100.00
33454;BME280;39400;49.744;7.012;2023-09-19T02:59:34;95595.84;;;20.66;100.00
33454;BME280;39400;49.744;7.012;2023-09-19T03:02:00;95594.50;;;20.95;100.00
33454;BME280;39400;49.744;7.012;2023-09-19T03:04:25;95605.44;;;20.47;100.00
33454;BME280;39400;49.744;7.012;2023-09-19T03:06:51;95604.53;;;20.68;100.00
33454;BME280;39400;49.744;7.012;2023-09-19T03:09:16;95603.94;;;20.55;100.00
33454;BME280;39400;49.744;7.012;2023-09-19T03:11:41;95611.03;;;20.47;100.00
33454;BME280;39400;49.744;7.012;2023-09-19T03:14:08;95607.34;;;20.40;100.00
33454;BME280;39400;49.744;7.012;2023-09-19T03:16:33;95609.81;;;20.20;100.00
33454;BME280;39400;49.744;7.012;2023-09-19T03:18:59;95607.47;;;20.18;100.00
33454;BME280;39400;49.744;7.012;2023-09-19T03:21:24;95618.66;;;20.18;100.00
33454;BME280;39400;49.744;7.012;2023-09-19T03:23:50;95617.25;;;20.14;100.00
33454;BME280;39400;49.744;7.012;2023-09-19T03:26:15;95623.59;;;20.33;100.00
33454;BME280;39400;49.744;7.012;2023-09-19T03:28:41;95617.91;;;20.55;100.00
33454;BME280;39400;49.744;7.012;2023-09-19T03:31:07;95624.06;;;19.85;100.00
33454;BME280;39400;49.744;7.012;2023-09-19T03:33:34;95625.63;;;19.86;100.00
33454;BME280;39400;49.744;7.012;2023-09-19T03:36:01;95614.69;;;19.61;100.00
33454;BME280;39400;49.744;7.012;2023-09-19T03:38:27;95621.09;;;19.80;100.00
33454;BME280;39400;49.744;7.012;2023-09-19T03:40:52;95623.00;;;20.47;100.00
33454;BME280;39400;49.744;7.012;2023-09-19T03:43:17;95615.41;;;19.92;100.00
33454;BME280;39400;49.744;7.012;2023-09-19T03:45:43;95617.81;;;19.63;100.00
33454;BME280;39400;49.744;7.012;2023-09-19T03:48:09;95614.13;;;19.75;100.00
33454;BME280;39400;49.744;7.012;2023-09-19T03:50:34;95610.56;;;19.84;100.00
33454;BME280;39400;49.744;7.012;2023-09-19T03:53:00;95611.50;;;19.90;100.00
33454;BME280;39400;49.744;7.012;2023-09-19T03:55:25;95611.88;;;19.52;100.00
33454;BME280;39400;49.744;7.012;2023-09-19T03:57:50;95611.88;;;19.52;100.00
33454;BME280;39400;49.744;7.012;2023-09-19T04:00:16;95606.22;;;19.24;100.00
33454;BME280;39400;49.744;7.012;2023-09-19T04:02:41;95601.41;;;19.65;100.00
33454;BME280;39400;49.744;7.012;2023-09-19T04:05:07;95599.19;;;19.51;100.00
33454;BME280;39400;49.744;7.012;2023-09-19T04:07:32;95592.84;;;19.50;100.00
33454;BME280;39400;49.744;7.012;2023-09-19T04:09:57;95592.13;;;19.68;100.00
33454;BME280;39400;49.744;7.012;2023-09-19T04:12:23;95592.75;;;20.09;100.00
33454;BME280;39400;49.744;7.012;2023-09-19T04:14:48;95591.03;;;20.11;100.00
33454;BME280;39400;49.744;7.012;2023-09-19T04:17:13;95596.47;;;20.33;100.00
33454;BME280;39400;49.744;7.012;2023-09-19T04:19:38;95589.16;;;20.36;99.88
33454;BME280;39400;49.744;7.012;2023-09-19T04:22:05;95598.16;;;20.12;100.00
33454;BME280;39400;49.744;7.012;2023-09-19T04:24:30;95594.94;;;20.23;98.20
33454;BME280;39400;49.744;7.012;2023-09-19T04:26:55;95597.38;;;19.66;100.00
33454;BME280;39400;49.744;7.012;2023-09-19T04:29:20;95598.13;;;19.57;100.00
33454;BME280;39400;49.744;7.012;2023-09-19T04:31:46;95601.13;;;19.81;100.00
33454;BME280;39400;49.744;7.012;2023-09-19T04:34:11;95606.34;;;19.70;100.00
33454;BME280;39400;49.744;7.012;2023-09-19T04:36:36;95599.19;;;19.60;100.00
33454;BME280;39400;49.744;7.012;2023-09-19T04:39:02;95604.22;;;19.83;100.00
33454;BME280;39400;49.744;7.012;2023-09-19T04:41:27;95608.84;;;19.28;100.00
33454;BME280;39400;49.744;7.012;2023-09-19T04:43:53;95612.31;;;19.41;100.00
33454;BME280;39400;49.744;7.012;2023-09-19T04:46:18;95622.47;;;19.66;100.00
33454;BME280;39400;49.744;7.012;2023-09-19T04:48:43;95622.94;;;19.24;100.00
33454;BME280;39400;49.744;7.012;2023-09-19T04:51:08;95613.13;;;19.60;100.00
33454;BME280;39400;49.744;7.012;2023-09-19T04:53:34;95632.91;;;18.72;100.00
33454;BME280;39400;49.744;7.012;2023-09-19T04:55:59;95641.63;;;18.83;100.00
33454;BME280;39400;49.744;7.012;2023-09-19T04:58:24;95637.75;;;19.12;100.00
33454;BME280;39400;49.744;7.012;2023-09-19T05:00:49;95633.50;;;18.98;100.00
33454;BME280;39400;49.744;7.012;2023-09-19T05:03:15;95644.09;;;18.81;100.00
33454;BME280;39400;49.744;7.012;2023-09-19T05:05:40;95642.78;;;18.95;100.00
33454;BME280;39400;49.744;7.012;2023-09-19T05:08:05;95646.59;;;18.44;100.00
33454;BME280;39400;49.744;7.012;2023-09-19T05:10:31;95641.59;;;18.74;100.00
33454;BME280;39400;49.744;7.012;2023-09-19T05:12:56;95652.75;;;18.61;100.00
33454;BME280;39400;49.744;7.012;2023-09-19T05:15:22;95649.19;;;18.39;100.00
33454;BME280;39400;49.744;7.012;2023-09-19T05:17:47;95649.16;;;18.73;100.00
33454;BME280;39400;49.744;7.012;2023-09-19T05:20:13;95659.81;;;18.31;100.00
33454;BME280;39400;49.744;7.012;2023-09-19T05:22:38;95653.38;;;18.21;100.00
33454;BME280;39400;49.744;7.012;2023-09-19T05:25:03;95647.13;;;17.95;100.00
33454;BME280;39400;49.744;7.012;2023-09-19T05:27:28;95660.72;;;17.93;100.00
33454;BME280;39400;49.744;7.012;2023-09-19T05:29:54;95649.63;;;18.15;100.00
33454;BME280;39400;49.744;7.012;2023-09-19T05:32:19;95660.09;;;17.64;100.00
33454;BME280;39400;49.744;7.012;2023-09-19T05:34:44;95660.06;;;17.89;100.00
33454;BME280;39400;49.744;7.012;2023-09-19T05:37:09;95643.59;;;17.82;100.00
33454;BME280;39400;49.744;7.012;2023-09-19T05:39:34;95656.53;;;17.63;100.00
33454;BME280;39400;49.744;7.012;2023-09-19T05:42:00;95646.66;;;17.37;100.00
33454;BME280;39400;49.744;7.012;2023-09-19T05:44:25;95646.72;;;17.71;100.00
33454;BME280;39400;49.744;7.012;2023-09-19T05:46:50;95648.06;;;17.67;100.00
33454;BME280;39400;49.744;7.012;2023-09-19T05:49:16;95646.03;;;17.80;100.00
33454;BME280;39400;49.744;7.012;2023-09-19T05:51:41;95656.78;;;18.03;100.00
33454;BME280;39400;49.744;7.012;2023-09-19T05:54:06;95658.97;;;18.43;100.00
33454;BME280;39400;49.744;7.012;2023-09-19T05:56:31;95659.25;;;18.58;100.00
33454;BME280;39400;49.744;7.012;2023-09-19T05:58:56;95660.13;;;18.33;100.00
33454;BME280;39400;49.744;7.012;2023-09-19T06:01:22;95660.22;;;18.08;100.00
33454;BME280;39400;49.744;7.012;2023-09-19T06:03:47;95640.44;;;18.05;100.00
33454;BME280;39400;49.744;7.012;2023-09-19T06:06:13;95665.28;;;18.22;100.00
33454;BME280;39400;49.744;7.012;2023-09-19T06:08:38;95669.28;;;17.86;100.00
33454;BME280;39400;49.744;7.012;2023-09-19T06:11:03;95682.22;;;18.15;100.00
33454;BME280;39400;49.744;7.012;2023-09-19T06:13:29;95693.59;;;18.08;100.00
33454;BME280;39400;49.744;7.012;2023-09-19T06:15:54;95693.34;;;18.15;100.00
33454;BME280;39400;49.744;7.012;2023-09-19T06:18:20;95706.19;;;18.47;100.00
33454;BME280;39400;49.744;7.012;2023-09-19T06:20:46;95673.97;;;18.24;100.00
33454;BME280;39400;49.744;7.012;2023-09-19T06:23:11;95721.59;;;18.61;100.00
33454;BME280;39400;49.744;7.012;2023-09-19T06:25:37;95732.16;;;17.71;100.00
33454;BME280;39400;49.744;7.012;2023-09-19T06:28:02;95719.00;;;18.10;100.00
33454;BME280;39400;49.744;7.012;2023-09-19T06:30:27;95721.06;;;18.18;100.00
33454;BME280;39400;49.744;7.012;2023-09-19T06:32:59;95715.50;;;18.18;100.00
33454;BME280;39400;49.744;7.012;2023-09-19T06:35:25;95736.88;;;18.21;100.00
33454;BME280;39400;49.744;7.012;2023-09-19T06:37:50;95734.50;;;17.85;100.00
33454;BME280;39400;49.744;7.012;2023-09-19T06:40:15;95735.50;;;17.91;100.00
33454;BME280;39400;49.744;7.012;2023-09-19T06:45:06;95739.56;;;18.12;100.00
33454;BME280;39400;49.744;7.012;2023-09-19T06:47:32;95741.47;;;18.15;100.00
33454;BME280;39400;49.744;7.012;2023-09-19T06:49:57;95745.81;;;18.16;100.00
33454;BME280;39400;49.744;7.012;2023-09-19T06:52:22;95748.38;;;18.45;100.00
33454;BME280;39400;49.744;7.012;2023-09-19T06:54:48;95753.88;;;18.71;100.00
33454;BME280;39400;49.744;7.012;2023-09-19T06:57:13;95761.22;;;18.77;100.00
33454;BME280;39400;49.744;7.012;2023-09-19T06:59:39;95765.47;;;18.22;100.00
33454;BME280;39400;49.744;7.012;2023-09-19T07:02:04;95765.19;;;18.54;100.00
33454;BME280;39400;49.744;7.012;2023-09-19T07:04:30;95768.81;;;18.64;100.00
33454;BME280;39400;49.744;7.012;2023-09-19T07:06:55;95756.31;;;18.34;100.00
33454;BME280;39400;49.744;7.012;2023-09-19T07:09:20;95775.66;;;17.90;100.00
33454;BME280;39400;49.744;7.012;2023-09-19T07:11:45;95765.09;;;17.85;100.00
33454;BME280;39400;49.744;7.012;2023-09-19T07:14:11;95781.72;;;18.36;100.00
33454;BME280;39400;49.744;7.012;2023-09-19T07:16:38;95777.34;;;18.35;100.00
33454;BME280;39400;49.744;7.012;2023-09-19T07:19:03;95782.63;;;18.33;100.00
33454;BME280;39400;49.744;7.012;2023-09-19T07:21:28;95786.31;;;18.04;100.00
33454;BME280;39400;49.744;7.012;2023-09-19T07:23:53;95789.13;;;17.79;100.00
33454;BME280;39400;49.744;7.012;2023-09-19T07:26:19;95787.81;;;18.44;100.00
33454;BME280;39400;49.744;7.012;2023-09-19T07:28:44;95792.50;;;18.34;100.00
33454;BME280;39400;49.744;7.012;2023-09-19T07:31:09;95798.66;;;18.29;100.00
33454;BME280;39400;49.744;7.012;2023-09-19T07:33:35;95809.25;;;18.69;99.75
33454;BME280;39400;49.744;7.012;2023-09-19T07:36:01;95800.38;;;18.96;98.80
33454;BME280;39400;49.744;7.012;2023-09-19T07:38:26;95800.03;;;18.59;96.89
33454;BME280;39400;49.744;7.012;2023-09-19T07:40:51;95803.44;;;18.76;98.47
33454;BME280;39400;49.744;7.012;2023-09-19T07:43:16;95798.94;;;19.13;96.62
33454;BME280;39400;49.744;7.012;2023-09-19T07:45:42;95807.63;;;18.93;94.32
33454;BME280;39400;49.744;7.012;2023-09-19T07:48:07;95810.75;;;18.95;94.40
33454;BME280;39400;49.744;7.012;2023-09-19T07:50:33;95811.50;;;19.62;93.02
33454;BME280;39400;49.744;7.012;2023-09-19T07:52:58;95818.41;;;19.26;91.90
33454;BME280;39400;49.744;7.012;2023-09-19T07:55:24;95816.19;;;18.51;93.22
33454;BME280;39400;49.744;7.012;2023-09-19T07:57:49;95819.75;;;18.99;94.71
33454;BME280;39400;49.744;7.012;2023-09-19T08:00:14;95824.09;;;19.00;94.77
33454;BME280;39400;49.744;7.012;2023-09-19T08:02:40;95823.53;;;19.06;92.78
33454;BME280;39400;49.744;7.012;2023-09-19T08:05:06;95817.84;;;18.74;93.58
33454;BME280;39400;49.744;7.012;2023-09-19T08:07:35;95826.56;;;18.98;93.41
33454;BME280;39400;49.744;7.012;2023-09-19T08:10:00;95832.28;;;19.17;89.89
33454;BME280;39400;49.744;7.012;2023-09-19T08:12:25;95839.41;;;19.40;91.14
33454;BME280;39400;49.744;7.012;2023-09-19T08:14:51;95828.75;;;19.25;87.07
33454;BME280;39400;49.744;7.012;2023-09-19T08:17:16;95793.16;;;18.38;87.83
33454;BME280;39400;49.744;7.012;2023-09-19T08:19:41;95835.31;;;18.75;86.07
33454;BME280;39400;49.744;7.012;2023-09-19T08:22:07;95845.81;;;18.58;86.94
33454;BME280;39400;49.744;7.012;2023-09-19T08:24:32;95832.78;;;19.24;87.76
33454;BME280;39400;49.744;7.012;2023-09-19T08:26:57;95839.28;;;19.65;88.19
33454;BME280;39400;49.744;7.012;2023-09-19T08:29:28;95844.44;;;19.76;85.18
33454;BME280;39400;49.744;7.012;2023-09-19T08:31:54;95841.38;;;20.14;83.41
33454;BME280;39400;49.744;7.012;2023-09-19T08:34:20;95846.69;;;19.90;79.56
33454;BME280;39400;49.744;7.012;2023-09-19T08:36:45;95846.13;;;20.05;79.53
33454;BME280;39400;49.744;7.012;2023-09-19T08:39:11;95861.72;;;19.40;80.82
33454;BME280;39400;49.744;7.012;2023-09-19T08:41:36;95855.75;;;19.51;79.83
33454;BME280;39400;49.744;7.012;2023-09-19T08:44:01;95858.66;;;19.69;81.35
33454;BME280;39400;49.744;7.012;2023-09-19T08:46:27;95852.47;;;19.74;80.75
33454;BME280;39400;49.744;7.012;2023-09-19T08:48:57;95851.22;;;20.37;81.61
33454;BME280;39400;49.744;7.012;2023-09-19T08:51:30;95838.88;;;20.57;75.22
33454;BME280;39400;49.744;7.012;2023-09-19T08:54:07;95850.97;;;20.13;75.24
33454;BME280;39400;49.744;7.012;2023-09-19T08:56:33;95858.03;;;20.36;74.77
33454;BME280;39400;49.744;7.012;2023-09-19T08:59:05;95846.38;;;19.88;74.70
33454;BME280;39400;49.744;7.012;2023-09-19T09:01:31;95847.66;;;19.97;74.46
33454;BME280;39400;49.744;7.012;2023-09-19T09:03:56;95846.09;;;19.95;73.08
33454;BME280;39400;49.744;7.012;2023-09-19T09:06:23;95848.97;;;20.54;73.02
33454;BME280;39400;49.744;7.012;2023-09-19T09:08:52;95845.88;;;20.21;71.28
33454;BME280;39400;49.744;7.012;2023-09-19T09:11:17;95837.03;;;20.81;71.59
33454;BME280;39400;49.744;7.012;2023-09-19T09:13:44;95844.97;;;20.74;68.66
33454;BME280;39400;49.744;7.012;2023-09-19T09:16:09;95838.94;;;21.03;67.76
33454;BME280;39400;49.744;7.012;2023-09-19T09:18:34;95842.13;;;20.15;66.87
33454;BME280;39400;49.744;7.012;2023-09-19T09:21:00;95836.41;;;19.78;67.98
33454;BME280;39400;49.744;7.012;2023-09-19T09:23:26;95844.97;;;20.24;67.51
33454;BME280;39400;49.744;7.012;2023-09-19T09:28:26;95854.50;;;20.05;66.11
33454;BME280;39400;49.744;7.012;2023-09-19T09:30:52;95873.88;;;19.77;67.33
33454;BME280;39400;49.744;7.012;2023-09-19T09:33:17;95859.31;;;20.04;69.50
33454;BME280;39400;49.744;7.012;2023-09-19T09:38:21;95856.19;;;20.42;68.54
33454;BME280;39400;49.744;7.012;2023-09-19T09:43:24;95868.09;;;20.65;65.69
33454;BME280;39400;49.744;7.012;2023-09-19T09:45:57;95851.03;;;21.09;65.59
33454;BME280;39400;49.744;7.012;2023-09-19T09:48:31;95852.47;;;21.13;65.90
33454;BME280;39400;49.744;7.012;2023-09-19T09:50:56;95837.38;;;21.11;66.30
33454;BME280;39400;49.744;7.012;2023-09-19T09:55:57;95840.78;;;20.69;63.59
33454;BME280;39400;49.744;7.012;2023-09-19T09:58:23;95853.19;;;20.77;64.44
33454;BME280;39400;49.744;7.012;2023-09-19T10:00:52;95863.41;;;20.62;62.95
33454;BME280;39400;49.744;7.012;2023-09-19T10:03:20;95859.66;;;20.15;63.45
33454;BME280;39400;49.744;7.012;2023-09-19T10:05:46;95849.91;;;20.51;62.39
33454;BME280;39400;49.744;7.012;2023-09-19T10:08:11;95850.84;;;20.26;61.86
33454;BME280;39400;49.744;7.012;2023-09-19T10:10:40;95857.28;;;19.95;63.48
33454;BME280;39400;49.744;7.012;2023-09-19T10:13:05;95849.34;;;20.34;64.43
33454;BME280;39400;49.744;7.012;2023-09-19T10:15:31;95860.00;;;20.58;64.18
33454;BME280;39400;49.744;7.012;2023-09-19T10:17:57;95861.88;;;20.61;63.81
33454;BME280;39400;49.744;7.012;2023-09-19T10:20:25;95844.84;;;20.96;63.79
33454;BME280;39400;49.744;7.012;2023-09-19T10:22:51;95838.63;;;21.01;62.92
33454;BME280;39400;49.744;7.012;2023-09-19T10:25:18;95857.34;;;20.54;63.36
33454;BME280;39400;49.744;7.012;2023-09-19T10:27:43;95841.59;;;21.06;63.06
33454;BME280;39400;49.744;7.012;2023-09-19T10:30:09;95853.06;;;20.90;62.41
33454;BME280;39400;49.744;7.012;2023-09-19T10:32:35;95845.16;;;21.07;62.41
33454;BME280;39400;49.744;7.012;2023-09-19T10:35:01;95834.41;;;20.69;59.79
33454;BME280;39400;49.744;7.012;2023-09-19T10:37:27;95836.28;;;21.18;60.48
33454;BME280;39400;49.744;7.012;2023-09-19T10:42:39;95832.09;;;20.76;60.83
33454;BME280;39400;49.744;7.012;2023-09-19T10:45:06;95831.00;;;21.01;60.73
33454;BME280;39400;49.744;7.012;2023-09-19T10:47:32;95825.88;;;20.72;60.23
33454;BME280;39400;49.744;7.012;2023-09-19T10:50:01;95832.69;;;20.71;60.40
33454;BME280;39400;49.744;7.012;2023-09-19T10:52:26;95832.34;;;20.60;60.84
33454;BME280;39400;49.744;7.012;2023-09-19T10:54:53;95824.63;;;20.73;62.22
33454;BME280;39400;49.744;7.012;2023-09-19T10:57:23;95827.31;;;20.27;61.49
33454;BME280;39400;49.744;7.012;2023-09-19T11:00:02;95833.63;;;20.68;60.90
33454;BME280;39400;49.744;7.012;2023-09-19T11:02:28;95815.00;;;20.74;59.96
33454;BME280;39400;49.744;7.012;2023-09-19T11:04:53;95809.88;;;21.46;60.55
33454;BME280;39400;49.744;7.012;2023-09-19T11:07:18;95810.50;;;21.04;60.92
33454;BME280;39400;49.744;7.012;2023-09-19T11:09:53;95803.16;;;21.62;60.09
33454;BME280;39400;49.744;7.012;2023-09-19T11:14:56;95805.06;;;20.73;59.96
33454;BME280;39400;49.744;7.012;2023-09-19T11:17:32;95808.50;;;21.14;59.60
33454;BME280;39400;49.744;7.012;2023-09-19T11:22:58;95806.31;;;21.27;60.00
33454;BME280;39400;49.744;7.012;2023-09-19T11:30:33;95804.28;;;21.37;58.94
33454;BME280;39400;49.744;7.012;2023-09-19T11:43:49;95806.28;;;21.55;59.55
33454;BME280;39400;49.744;7.012;2023-09-19T11:46:15;95793.25;;;21.43;59.76
33454;BME280;39400;49.744;7.012;2023-09-19T11:48:42;95804.44;;;21.52;58.48
33454;BME280;39400;49.744;7.012;2023-09-19T11:51:11;95814.91;;;21.84;58.91
33454;BME280;39400;49.744;7.012;2023-09-19T11:53:36;95788.25;;;21.65;58.00
33454;BME280;39400;49.744;7.012;2023-09-19T11:56:04;95787.97;;;21.96;57.12
33454;BME280;39400;49.744;7.012;2023-09-19T11:58:30;95790.59;;;22.00;57.65
33454;BME280;39400;49.744;7.012;2023-09-19T12:00:56;95794.06;;;21.85;57.08
33454;BME280;39400;49.744;7.012;2023-09-19T12:03:22;95792.38;;;21.79;57.90
33454;BME280;39400;49.744;7.012;2023-09-19T12:05:49;95786.50;;;22.10;56.78
33454;BME280;39400;49.744;7.012;2023-09-19T12:08:14;95779.69;;;22.02;55.88
33454;BME280;39400;49.744;7.012;2023-09-19T12:10:50;95775.09;;;21.80;55.59
33454;BME280;39400;49.744;7.012;2023-09-19T12:13:16;95782.78;;;22.04;56.09
33454;BME280;39400;49.744;7.012;2023-09-19T12:15:41;95784.34;;;22.05;54.09
33454;BME280;39400;49.744;7.012;2023-09-19T12:18:07;95778.84;;;22.20;54.65
33454;BME280;39400;49.744;7.012;2023-09-19T12:20:42;95791.19;;;21.62;55.03
33454;BME280;39400;49.744;7.012;2023-09-19T12:23:13;95788.03;;;22.20;56.66
33454;BME280;39400;49.744;7.012;2023-09-19T12:25:42;95786.72;;;22.30;56.32
33454;BME280;39400;49.744;7.012;2023-09-19T12:28:08;95793.59;;;22.29;55.48
33454;BME280;39400;49.744;7.012;2023-09-19T12:30:33;95792.34;;;21.88;56.92
33454;BME280;39400;49.744;7.012;2023-09-19T12:32:58;95777.69;;;22.36;56.05
33454;BME280;39400;49.744;7.012;2023-09-19T12:35:29;95794.59;;;22.08;55.62
33454;BME280;39400;49.744;7.012;2023-09-19T12:37:55;95792.50;;;22.51;54.70
33454;BME280;39400;49.744;7.012;2023-09-19T12:40:20;95786.91;;;22.51;56.10
33454;BME280;39400;49.744;7.012;2023-09-19T12:42:46;95796.44;;;22.68;55.11
33454;BME280;39400;49.744;7.012;2023-09-19T12:45:12;95774.56;;;22.58;56.99
33454;BME280;39400;49.744;7.012;2023-09-19T12:47:38;95782.50;;;22.59;55.97
33454;BME280;39400;49.744;7.012;2023-09-19T12:50:13;95779.81;;;22.07;54.21
33454;BME280;39400;49.744;7.012;2023-09-19T12:52:40;95771.94;;;22.54;54.25
33454;BME280;39400;49.744;7.012;2023-09-19T12:55:05;95774.56;;;22.82;55.20
33454;BME280;39400;49.744;7.012;2023-09-19T12:57:31;95771.47;;;23.33;54.53
33454;BME280;39400;49.744;7.012;2023-09-19T12:59:56;95779.72;;;22.35;53.16
33454;BME280;39400;49.744;7.012;2023-09-19T13:02:22;95785.53;;;22.13;53.33
33454;BME280;39400;49.744;7.012;2023-09-19T13:04:53;95778.94;;;22.35;52.98
33454;BME280;39400;49.744;7.012;2023-09-19T13:10:03;95780.47;;;22.36;54.37
33454;BME280;39400;49.744;7.012;2023-09-19T13:12:35;95785.72;;;22.43;54.04
33454;BME280;39400;49.744;7.012;2023-09-19T13:15:07;95793.41;;;22.81;54.67
33454;BME280;39400;49.744;7.012;2023-09-19T13:17:42;95790.63;;;21.91;55.50
33454;BME280;39400;49.744;7.012;2023-09-19T13:20:19;95785.97;;;21.88;55.93
33454;BME280;39400;49.744;7.012;2023-09-19T13:22:45;95777.00;;;22.41;55.50
33454;BME280;39400;49.744;7.012;2023-09-19T13:25:12;95777.28;;;22.52;56.57
33454;BME280;39400;49.744;7.012;2023-09-19T13:27:38;95780.09;;;22.91;55.94
33454;BME280;39400;49.744;7.012;2023-09-19T13:30:03;95777.91;;;22.71;55.63
33454;BME280;39400;49.744;7.012;2023-09-19T13:32:29;95775.16;;;23.54;55.46
33454;BME280;39400;49.744;7.012;2023-09-19T13:34:54;95766.09;;;23.74;54.74
33454;BME280;39400;49.744;7.012;2023-09-19T13:37:19;95765.31;;;23.73;54.97
33454;BME280;39400;49.744;7.012;2023-09-19T13:39:45;95773.81;;;23.64;55.00